Time;durP1;ratioP1;P1;durP2;ratioP2;P2;SDS_P1;SDS_P2;PMS_P1;PMS_P2;Temp;Humidity;BMP_temperature;BMP_pressure;BME280_temperature;BME280_humidity;BME280_pressure;Samples;Min_cycle;Max_cycle;Signal;HPM_P1;HPM_P2
2021/12/29 00:00:28;;;;;;;4.15;1.05;;;6.30;99.90;;;;;;4978812;28;20244;-73
2021/12/29 00:02:58;;;;;;;8.77;1.25;;;6.20;99.90;;;;;;4979074;28;20054;-74
2021/12/29 00:05:25;;;;;;;2.80;1.13;;;6.20;99.90;;;;;;4979532;28;20053;-74
2021/12/29 00:07:52;;;;;;;1.75;0.80;;;6.20;99.90;;;;;;4978321;28;20035;-74
2021/12/29 00:10:19;;;;;;;;;;;6.20;99.90;;;;;;4979704;28;20547;-74
2021/12/29 00:12:51;;;;;;;3.08;0.47;;;6.20;99.90;;;;;;4979288;28;19961;-74
2021/12/29 00:15:19;;;;;;;2.85;0.50;;;6.20;99.90;;;;;;4979019;28;20616;-74
2021/12/29 00:17:47;;;;;;;2.92;0.60;;;6.20;99.90;;;;;;4981131;28;20052;-74
2021/12/29 00:20:18;;;;;;;0.43;0.43;;;6.30;99.90;;;;;;4994964;28;20058;-73
2021/12/29 00:22:46;;;;;;;0.52;0.40;;;6.30;99.90;;;;;;4998093;28;20050;-74
2021/12/29 00:25:13;;;;;;;2.70;0.40;;;6.40;99.90;;;;;;4997605;28;20041;-75
2021/12/29 00:27:40;;;;;;;1.45;0.57;;;6.40;99.90;;;;;;5000129;28;20100;-74
2021/12/29 00:30:10;;;;;;;1.83;0.80;;;6.40;99.90;;;;;;4997708;28;20046;-73
2021/12/29 00:32:56;;;;;;;1.13;0.75;;;6.40;99.90;;;;;;4997963;28;20134;-73
2021/12/29 00:35:44;;;;;;;1.98;0.80;;;6.40;99.90;;;;;;4997729;28;20546;-74
2021/12/29 00:38:23;;;;;;;3.10;0.80;;;6.40;99.90;;;;;;4998785;28;20148;-74
2021/12/29 00:41:09;;;;;;;4.18;0.80;;;6.50;99.90;;;;;;4997666;28;20475;-75
2021/12/29 00:43:55;;;;;;;3.58;1.20;;;6.40;99.90;;;;;;4997507;28;20084;-75
2021/12/29 00:46:52;;;;;;;4.97;0.95;;;6.40;99.90;;;;;;4996384;28;20092;-75
2021/12/29 00:49:21;;;;;;;4.57;1.20;;;6.40;99.90;;;;;;4997479;28;20050;-75
2021/12/29 00:51:49;;;;;;;4.60;1.25;;;6.40;99.90;;;;;;4997291;28;20137;-75
2021/12/29 00:54:16;;;;;;;9.10;2.13;;;6.30;99.90;;;;;;4997830;28;20104;-75
2021/12/29 00:56:44;;;;;;;8.65;1.20;;;6.30;99.90;;;;;;4998280;28;20088;-75
2021/12/29 00:59:10;;;;;;;9.35;2.03;;;6.30;99.90;;;;;;4996922;28;21020;-75
2021/12/29 01:01:37;;;;;;;;;;;6.40;99.90;;;;;;4998981;28;20046;-75
2021/12/29 01:04:05;;;;;;;9.32;2.10;;;6.40;99.90;;;;;;4997910;28;20730;-75
2021/12/29 01:06:32;;;;;;;17.10;2.35;;;6.40;99.90;;;;;;4998463;28;20057;-75
2021/12/29 01:08:59;;;;;;;19.83;2.65;;;6.40;99.90;;;;;;4997772;28;20042;-75
2021/12/29 01:11:26;;;;;;;17.58;3.05;;;6.50;99.90;;;;;;4998072;28;20866;-75
2021/12/29 01:13:53;;;;;;;20.20;4.47;;;6.50;99.90;;;;;;4997110;28;20060;-75
2021/12/29 01:16:36;;;;;;;;;;;6.60;99.90;;;;;;4998076;28;20037;-75
2021/12/29 01:19:12;;;;;;;14.18;3.22;;;6.60;99.90;;;;;;4986698;28;19984;-74
2021/12/29 01:21:42;;;;;;;18.23;3.92;;;6.70;99.90;;;;;;4997096;28;20091;-75
2021/12/29 01:24:09;;;;;;;15.60;2.88;;;6.70;99.90;;;;;;4998035;28;20512;-74
2021/12/29 01:26:37;;;;;;;21.23;4.40;;;6.70;99.90;;;;;;4997374;28;20046;-75
2021/12/29 01:29:05;;;;;;;18.83;4.47;;;6.70;99.90;;;;;;4996348;28;20049;-74
2021/12/29 01:31:32;;;;;;;14.80;2.20;;;6.70;99.90;;;;;;4996815;28;20530;-74
2021/12/29 01:33:59;;;;;;;;;;;6.70;99.90;;;;;;4996782;28;20046;-74
2021/12/29 01:36:26;;;;;;;16.45;3.35;;;6.70;99.90;;;;;;4996935;28;19925;-74
2021/12/29 01:38:53;;;;;;;13.77;2.38;;;6.70;99.90;;;;;;4996917;28;20045;-74
2021/12/29 01:41:20;;;;;;;;;;;6.70;99.90;;;;;;4997410;28;20342;-75
2021/12/29 01:43:47;;;;;;;22.23;3.80;;;6.70;99.90;;;;;;4996699;28;19925;-73
2021/12/29 01:46:13;;;;;;;;;;;6.70;99.90;;;;;;4987847;28;20042;-75
2021/12/29 01:48:40;;;;;;;24.45;3.13;;;6.70;99.90;;;;;;4992464;28;20600;-75
2021/12/29 01:51:07;;;;;;;;;;;6.70;99.90;;;;;;4975512;28;20653;-75
2021/12/29 01:53:35;;;;;;;16.83;3.05;;;6.70;99.90;;;;;;4977353;28;20178;-75
2021/12/29 01:56:02;;;;;;;15.48;2.83;;;6.70;99.90;;;;;;4977806;28;20152;-75
2021/12/29 01:58:29;;;;;;;11.32;2.03;;;6.70;99.90;;;;;;4976986;28;20050;-74
2021/12/29 02:00:58;;;;;;;;;;;6.80;99.90;;;;;;4991892;28;20591;-74
2021/12/29 02:03:25;;;;;;;7.85;1.83;;;6.80;99.90;;;;;;4977151;28;20566;-74
2021/12/29 02:05:53;;;;;;;11.13;1.70;;;6.70;99.90;;;;;;4976153;28;20576;-74
2021/12/29 02:08:23;;;;;;;9.50;2.22;;;6.70;99.90;;;;;;4991847;28;20042;-75
2021/12/29 02:10:52;;;;;;;10.95;1.67;;;6.70;99.90;;;;;;4990587;28;20046;-74
2021/12/29 02:13:19;;;;;;;17.50;3.05;;;6.60;99.90;;;;;;4976010;28;20096;-74
2021/12/29 02:15:46;;;;;;;12.88;2.45;;;6.70;99.90;;;;;;4976553;28;20085;-75
2021/12/29 02:18:15;;;;;;;14.60;2.38;;;6.60;99.90;;;;;;4978354;28;20038;-75
2021/12/29 02:20:48;;;;;;;7.38;1.83;;;6.60;99.90;;;;;;4995725;28;20046;-74
2021/12/29 02:23:21;;;;;;;14.88;1.80;;;6.60;99.90;;;;;;4996504;28;20057;-74
2021/12/29 02:25:51;;;;;;;13.00;2.20;;;6.60;99.90;;;;;;4996883;28;20253;-74
2021/12/29 02:28:32;;;;;;;9.20;2.08;;;6.50;99.90;;;;;;4996089;28;20049;-74
2021/12/29 02:31:00;;;;;;;13.05;2.28;;;6.50;99.90;;;;;;4996455;28;20539;-74
2021/12/29 02:33:30;;;;;;;13.02;2.42;;;6.50;99.90;;;;;;4996254;28;20041;-74
2021/12/29 02:35:58;;;;;;;13.23;2.00;;;6.50;99.90;;;;;;4995727;28;20053;-74
2021/12/29 02:38:32;;;;;;;10.43;1.75;;;6.50;99.90;;;;;;4996308;28;20062;-74
2021/12/29 02:41:05;;;;;;;11.68;2.08;;;6.50;99.90;;;;;;4996425;28;20539;-74
2021/12/29 02:43:37;;;;;;;14.07;2.33;;;6.50;99.90;;;;;;4995998;28;20049;-74
2021/12/29 02:46:11;;;;;;;17.48;1.90;;;6.60;99.90;;;;;;4989020;28;20831;-74
2021/12/29 02:48:55;;;;;;;14.30;2.65;;;6.60;99.90;;;;;;4975508;28;20418;-74
2021/12/29 02:51:22;;;;;;;10.48;2.58;;;6.60;99.90;;;;;;4976314;28;20385;-73
2021/12/29 02:53:49;;;;;;;6.80;1.90;;;6.60;99.90;;;;;;4975562;28;20078;-73
2021/12/29 02:56:16;;;;;;;21.08;2.42;;;6.60;99.90;;;;;;4975458;28;20467;-73
2021/12/29 02:58:43;;;;;;;17.88;4.10;;;6.60;99.90;;;;;;4978492;28;20050;-73
2021/12/29 03:01:13;;;;;;;15.80;2.33;;;6.60;99.90;;;;;;4977264;28;20050;-73
2021/12/29 03:03:41;;;;;;;11.65;2.80;;;6.60;99.90;;;;;;4978064;28;20541;-73
2021/12/29 03:06:08;;;;;;;14.27;2.40;;;6.50;99.90;;;;;;4977511;28;20042;-73
2021/12/29 03:08:36;;;;;;;13.10;1.98;;;6.60;99.90;;;;;;4976602;28;20070;-73
2021/12/29 03:11:03;;;;;;;10.20;2.10;;;6.60;99.90;;;;;;4975353;28;20418;-75
2021/12/29 03:13:32;;;;;;;13.18;2.08;;;6.60;99.90;;;;;;4976015;28;20051;-74
2021/12/29 03:16:00;;;;;;;16.80;2.15;;;6.50;99.90;;;;;;4976625;28;20264;-75
2021/12/29 03:18:28;;;;;;;8.18;1.95;;;6.50;99.90;;;;;;4979065;28;20545;-76
2021/12/29 03:20:55;;;;;;;14.20;2.25;;;6.50;99.90;;;;;;4995104;28;20480;-74
2021/12/29 03:23:22;;;;;;;14.85;2.17;;;6.50;99.90;;;;;;4995794;28;20321;-75
2021/12/29 03:25:51;;;;;;;17.70;2.72;;;6.50;99.90;;;;;;4998173;28;20115;-75
2021/12/29 03:28:23;;;;;;;18.67;1.98;;;6.50;99.90;;;;;;4999362;28;20686;-73
2021/12/29 03:30:54;;;;;;;7.85;2.00;;;6.50;99.90;;;;;;4998845;28;20226;-73
2021/12/29 03:33:23;;;;;;;9.02;1.40;;;6.40;99.90;;;;;;4999197;28;20046;-75
2021/12/29 03:35:56;;;;;;;15.02;1.88;;;6.40;99.90;;;;;;4998874;28;20098;-75
2021/12/29 03:38:25;;;;;;;5.75;1.88;;;6.40;99.90;;;;;;4999727;28;20060;-75
2021/12/29 03:40:53;;;;;;;8.15;1.52;;;6.40;99.90;;;;;;4998331;28;20046;-73
2021/12/29 03:43:20;;;;;;;7.75;1.90;;;6.40;99.90;;;;;;4999782;28;20283;-74
2021/12/29 03:45:48;;;;;;;9.65;1.48;;;6.40;99.90;;;;;;5008522;28;20463;-74
2021/12/29 03:48:15;;;;;;;12.77;2.28;;;6.40;99.90;;;;;;4979573;28;20098;-74
2021/12/29 03:50:43;;;;;;;9.45;2.42;;;6.40;99.90;;;;;;4978993;28;20042;-74
2021/12/29 03:53:12;;;;;;;5.20;1.48;;;6.40;99.90;;;;;;4980076;28;20405;-73
2021/12/29 03:55:43;;;;;;;5.10;1.55;;;6.40;99.90;;;;;;4979560;28;20343;-73
2021/12/29 03:58:11;;;;;;;8.32;1.70;;;6.40;99.90;;;;;;4979366;28;20194;-74
2021/12/29 04:00:39;;;;;;;5.18;1.45;;;6.40;99.90;;;;;;4983206;28;20054;-74
2021/12/29 04:03:06;;;;;;;5.38;1.25;;;6.40;99.90;;;;;;4998104;28;20049;-73
2021/12/29 04:05:33;;;;;;;10.13;1.13;;;6.40;99.90;;;;;;4999034;28;20061;-74
2021/12/29 04:08:02;;;;;;;6.60;1.55;;;6.50;99.90;;;;;;4997304;28;20427;-74
2021/12/29 04:10:29;;;;;;;4.82;1.35;;;6.50;99.90;;;;;;4998081;28;20508;-74
2021/12/29 04:12:57;;;;;;;5.97;1.23;;;6.50;99.90;;;;;;4998195;28;20057;-74
2021/12/29 04:15:25;;;;;;;6.07;1.10;;;6.60;99.90;;;;;;4998727;28;20192;-74
2021/12/29 04:17:58;;;;;;;4.10;1.10;;;6.60;99.90;;;;;;4986888;28;20281;-74
2021/12/29 04:23:15;;;;;;;5.78;2.53;;;6.60;99.90;;;;;;4998898;28;20042;-74
2021/12/29 04:25:45;;;;;;;4.72;0.90;;;6.70;99.90;;;;;;4997823;28;20049;-74
2021/12/29 04:28:20;;;;;;;9.15;1.98;;;6.70;99.90;;;;;;4997322;28;20092;-73
2021/12/29 04:30:48;;;;;;;6.30;0.90;;;6.70;99.90;;;;;;4997309;28;20049;-74
2021/12/29 04:33:16;;;;;;;11.63;1.92;;;6.70;99.90;;;;;;4997935;28;20049;-74
2021/12/29 04:35:43;;;;;;;5.95;1.15;;;6.70;99.90;;;;;;4997776;28;20053;-73
2021/12/29 04:38:10;;;;;;;5.45;1.33;;;6.70;99.90;;;;;;4997694;28;20045;-73
2021/12/29 04:40:39;;;;;;;6.47;1.70;;;6.80;99.90;;;;;;4997783;28;20045;-73
2021/12/29 04:43:06;;;;;;;12.73;2.13;;;6.80;99.90;;;;;;4997894;28;20251;-74
2021/12/29 04:45:32;;;;;;;9.32;2.00;;;6.80;99.90;;;;;;4995041;28;20041;-73
2021/12/29 04:48:00;;;;;;;5.68;1.30;;;6.80;99.90;;;;;;4977846;28;20042;-73
2021/12/29 04:50:35;;;;;;;7.40;1.63;;;6.90;99.90;;;;;;4977244;28;20046;-74
2021/12/29 04:53:04;;;;;;;6.47;1.60;;;6.90;99.90;;;;;;4992077;28;20430;-73
2021/12/29 04:55:31;;;;;;;7.47;2.00;;;6.90;99.90;;;;;;4978471;28;20050;-73
2021/12/29 04:58:00;;;;;;;7.28;1.30;;;7.00;99.90;;;;;;4977973;28;20046;-73
2021/12/29 05:00:29;;;;;;;9.25;1.30;;;7.00;99.90;;;;;;4977693;28;20387;-73
2021/12/29 05:02:57;;;;;;;5.13;1.08;;;7.00;99.90;;;;;;4977983;28;20633;-73
2021/12/29 05:10:45;;;;;;;5.05;1.60;;;7.00;99.90;;;;;;4976629;28;20393;-73
2021/12/29 05:13:12;;;;;;;8.85;2.03;;;7.00;99.90;;;;;;4992730;28;20041;-73
2021/12/29 05:15:38;;;;;;;;;;;7.00;99.90;;;;;;4979144;28;20038;-73
2021/12/29 05:18:05;;;;;;;5.70;1.20;;;7.10;99.90;;;;;;4978672;28;19930;-73
2021/12/29 05:20:32;;;;;;;;;;;7.10;99.90;;;;;;4997205;28;20045;-73
2021/12/29 05:22:59;;;;;;;3.47;1.17;;;7.10;99.90;;;;;;4998035;28;20039;-73
2021/12/29 05:25:27;;;;;;;3.60;1.27;;;7.10;99.90;;;;;;4995352;28;20045;-73
2021/12/29 05:27:55;;;;;;;8.60;1.83;;;7.10;99.90;;;;;;4997566;28;20103;-73
2021/12/29 05:30:25;;;;;;;8.27;2.00;;;7.10;99.90;;;;;;4997540;28;20077;-73
2021/12/29 05:32:52;;;;;;;8.23;1.40;;;7.10;99.90;;;;;;4996588;28;20285;-73
2021/12/29 05:35:21;;;;;;;6.68;1.73;;;7.20;99.90;;;;;;4997847;28;20096;-73
2021/12/29 05:37:48;;;;;;;;;;;7.10;99.90;;;;;;4997663;28;20052;-73
2021/12/29 05:40:15;;;;;;;7.25;2.05;;;7.10;99.90;;;;;;4996823;28;19925;-72
2021/12/29 05:42:43;;;;;;;9.27;1.73;;;7.20;99.90;;;;;;4995268;28;20069;-72
2021/12/29 05:45:12;;;;;;;7.30;1.77;;;7.20;99.90;;;;;;4996291;28;20053;-73
2021/12/29 05:47:40;;;;;;;10.90;1.95;;;7.20;99.90;;;;;;4977286;28;20061;-73
2021/12/29 05:50:09;;;;;;;10.77;2.40;;;7.20;99.90;;;;;;4976837;28;20042;-73
2021/12/29 05:52:36;;;;;;;7.95;1.35;;;7.30;99.90;;;;;;4976844;28;20528;-73
2021/12/29 05:55:03;;;;;;;;;;;7.30;99.90;;;;;;4977088;28;20499;-72
2021/12/29 05:57:30;;;;;;;8.32;2.60;;;7.30;99.90;;;;;;4977805;28;20035;-73
2021/12/29 05:59:57;;;;;;;7.18;1.58;;;7.30;99.90;;;;;;4976516;28;20050;-73
2021/12/29 06:02:24;;;;;;;13.50;2.13;;;7.30;99.90;;;;;;4991882;28;20407;-72
2021/12/29 06:04:51;;;;;;;20.40;1.98;;;7.30;99.90;;;;;;4977145;28;20050;-72
2021/12/29 06:07:18;;;;;;;12.52;2.45;;;7.30;99.90;;;;;;4977164;28;20152;-72
2021/12/29 06:09:45;;;;;;;9.40;2.50;;;7.30;99.90;;;;;;4976308;28;20614;-73
2021/12/29 06:12:12;;;;;;;14.55;2.38;;;7.30;99.90;;;;;;4977240;28;20038;-73
2021/12/29 06:14:38;;;;;;;;;;;7.20;99.90;;;;;;4978288;28;20039;-72
2021/12/29 06:17:05;;;;;;;10.38;2.03;;;7.20;99.90;;;;;;4977988;28;20463;-72
2021/12/29 06:19:33;;;;;;;;;;;7.20;99.90;;;;;;4987796;28;20053;-72
2021/12/29 06:22:00;;;;;;;11.85;1.90;;;7.10;99.90;;;;;;4996639;28;19925;-72
2021/12/29 06:24:27;;;;;;;12.65;3.28;;;7.00;99.90;;;;;;4996102;28;20045;-72
2021/12/29 06:26:54;;;;;;;;;;;6.90;99.90;;;;;;4996826;28;20057;-72
2021/12/29 06:29:20;;;;;;;7.05;1.67;;;6.90;99.90;;;;;;5027191;28;20353;-72
2021/12/29 06:31:49;;;;;;;6.90;1.75;;;6.80;99.90;;;;;;4996130;28;20048;-72
2021/12/29 06:34:16;;;;;;;9.65;2.28;;;6.80;99.90;;;;;;4995853;28;20069;-73
2021/12/29 06:36:43;;;;;;;15.15;2.22;;;6.70;99.90;;;;;;4994961;28;20100;-73
2021/12/29 06:39:09;;;;;;;;;;;6.70;99.90;;;;;;4994018;28;20219;-72
2021/12/29 06:41:36;;;;;;;11.70;1.98;;;6.70;99.90;;;;;;5011770;28;19925;-72
2021/12/29 06:44:03;;;;;;;;;;;6.70;99.90;;;;;;4996455;28;20112;-72
2021/12/29 06:46:30;;;;;;;12.63;2.13;;;6.60;99.90;;;;;;4984776;28;20314;-73
2021/12/29 06:48:57;;;;;;;11.93;2.40;;;6.60;99.90;;;;;;4976136;28;20843;-72
2021/12/29 06:51:24;;;;;;;11.30;2.40;;;6.60;99.90;;;;;;4976358;28;20583;-72
2021/12/29 06:53:50;;;;;;;6.20;1.77;;;6.50;99.90;;;;;;4976206;28;20046;-72
2021/12/29 06:56:17;;;;;;;6.25;1.40;;;6.50;99.90;;;;;;4975972;28;20070;-72
2021/12/29 06:58:44;;;;;;;;;;;6.40;99.90;;;;;;4977651;28;20050;-72
2021/12/29 07:01:12;;;;;;;3.72;1.40;;;6.40;99.90;;;;;;4993505;28;19925;-72
2021/12/29 07:03:39;;;;;;;11.30;1.50;;;6.40;99.90;;;;;;4979282;28;20481;-73
2021/12/29 07:06:06;;;;;;;7.35;1.20;;;6.30;99.90;;;;;;4980878;28;20046;-74
2021/12/29 07:08:33;;;;;;;7.40;1.23;;;6.30;99.90;;;;;;4980513;28;20078;-58
2021/12/29 07:11:01;;;;;;;10.88;1.77;;;6.20;99.90;;;;;;4979718;28;20108;-58
2021/12/29 07:13:27;;;;;;;10.23;3.05;;;6.20;99.90;;;;;;4979292;28;20050;-58
2021/12/29 07:15:54;;;;;;;;;;;6.10;99.90;;;;;;4980718;28;20034;-58
2021/12/29 07:18:21;;;;;;;15.10;1.85;;;6.10;99.90;;;;;;4994985;28;19926;-58
2021/12/29 07:20:48;;;;;;;;;;;6.10;99.90;;;;;;4998705;28;20042;-59
2021/12/29 07:23:14;;;;;;;10.63;2.50;;;6.00;99.90;;;;;;4999111;28;20529;-59
2021/12/29 07:25:41;;;;;;;;;;;5.90;99.90;;;;;;5000662;28;20046;-59
2021/12/29 07:28:08;;;;;;;6.05;1.80;;;5.90;99.90;;;;;;4999970;28;19925;-59
2021/12/29 07:30:35;;;;;;;;;;;5.80;99.90;;;;;;4997665;28;20468;-58
2021/12/29 07:33:02;;;;;;;11.85;2.08;;;5.80;99.90;;;;;;4999739;28;19926;-58
2021/12/29 07:35:29;;;;;;;12.48;2.63;;;5.70;99.90;;;;;;4998839;28;20042;-58
2021/12/29 07:37:56;;;;;;;8.30;1.80;;;5.70;99.90;;;;;;4999363;28;20532;-58
2021/12/29 07:40:22;;;;;;;;;;;5.70;99.90;;;;;;4999253;28;20049;-58
2021/12/29 07:42:49;;;;;;;4.13;1.42;;;5.70;99.90;;;;;;4999994;28;19925;-59
2021/12/29 07:45:18;;;;;;;;;;;5.70;99.90;;;;;;4998096;28;20596;-59
2021/12/29 07:47:49;;;;;;;7.63;2.22;;;5.70;99.90;;;;;;4979729;28;19926;-59
2021/12/29 07:50:18;;;;;;;3.22;1.20;;;5.70;99.90;;;;;;4978890;28;20046;-59
2021/12/29 07:53:00;;;;;;;5.95;2.60;;;5.80;99.90;;;;;;4979738;28;20471;-59
2021/12/29 07:55:27;;;;;;;;;;;5.80;99.90;;;;;;4980321;28;20050;-59
2021/12/29 07:57:54;;;;;;;7.57;2.33;;;5.80;99.90;;;;;;4979343;28;19968;-59
2021/12/29 08:00:21;;;;;;;6.05;2.13;;;5.90;99.90;;;;;;4978865;28;20057;-58
2021/12/29 08:02:49;;;;;;;;;;;5.90;99.90;;;;;;4979754;28;20535;-58
2021/12/29 08:05:16;;;;;;;6.32;1.77;;;5.90;99.90;;;;;;4979578;28;19960;-58
2021/12/29 08:07:47;;;;;;;7.18;1.80;;;5.90;99.90;;;;;;4980936;28;20050;-55
2021/12/29 08:10:15;;;;;;;10.13;1.40;;;6.00;99.90;;;;;;4998056;28;20050;-56
2021/12/29 08:12:42;;;;;;;9.60;1.73;;;6.00;99.90;;;;;;4997270;28;20293;-56
2021/12/29 08:15:08;;;;;;;;;;;6.00;99.90;;;;;;4997497;28;20061;-56
2021/12/29 08:17:36;;;;;;;14.95;2.58;;;6.00;99.90;;;;;;4989400;28;19933;-55
2021/12/29 08:20:05;;;;;;;10.00;1.75;;;6.00;99.90;;;;;;4989145;28;20047;-56
2021/12/29 08:22:32;;;;;;;11.20;1.88;;;6.00;99.90;;;;;;4992552;28;20690;-57
2021/12/29 08:24:58;;;;;;;;;;;6.00;99.90;;;;;;4990576;28;20058;-58
2021/12/29 08:27:25;;;;;;;6.80;1.77;;;6.10;99.90;;;;;;4979075;28;20219;-58
2021/12/29 08:29:52;;;;;;;12.02;1.75;;;6.10;99.90;;;;;;4977414;28;20126;-59
2021/12/29 08:32:20;;;;;;;;;;;6.10;99.90;;;;;;4979602;28;20045;-58
2021/12/29 08:34:47;;;;;;;;;;;6.10;99.90;;;;;;4978926;28;20354;-55
2021/12/29 08:37:16;;;;;;;11.25;1.90;;;6.10;99.90;;;;;;4992592;28;19926;-56
2021/12/29 08:39:43;;;;;;;8.23;2.00;;;6.10;99.90;;;;;;4978067;28;20053;-56
2021/12/29 08:42:11;;;;;;;11.32;3.17;;;6.20;99.90;;;;;;4993205;28;20054;-56
2021/12/29 08:44:42;;;;;;;11.43;2.28;;;6.20;99.90;;;;;;4978055;28;20042;-56
2021/12/29 08:47:09;;;;;;;7.88;2.90;;;6.30;99.90;;;;;;4993952;28;20112;-57
2021/12/29 08:49:35;;;;;;;;;;;6.30;99.90;;;;;;4979389;28;20045;-54
2021/12/29 08:52:03;;;;;;;6.47;1.90;;;6.40;99.90;;;;;;4978317;28;19968;-55
2021/12/29 08:54:30;;;;;;;10.52;2.00;;;6.40;99.90;;;;;;4978746;28;20551;-58
2021/12/29 08:56:57;;;;;;;;;;;6.50;99.90;;;;;;4993763;28;20818;-56
2021/12/29 08:59:23;;;;;;;7.32;1.83;;;6.50;99.90;;;;;;4977273;28;19956;-59
2021/12/29 09:01:50;;;;;;;;;;;6.60;99.90;;;;;;4977258;28;20083;-55
2021/12/29 09:04:17;;;;;;;4.35;1.08;;;6.60;99.90;;;;;;4986232;28;19935;-55
2021/12/29 09:06:44;;;;;;;5.07;1.67;;;6.60;99.90;;;;;;4976374;28;20044;-57
2021/12/29 09:09:11;;;;;;;;;;;6.60;99.90;;;;;;4974752;28;20357;-56
2021/12/29 09:11:39;;;;;;;7.00;2.42;;;6.70;99.90;;;;;;4978203;28;19925;-56
2021/12/29 09:14:07;;;;;;;8.38;3.20;;;6.70;99.90;;;;;;4991760;28;20445;-56
2021/12/29 09:16:34;;;;;;;12.43;3.28;;;6.70;99.90;;;;;;4981137;28;20061;-55
2021/12/29 09:19:01;;;;;;;;;;;6.70;99.90;;;;;;4978984;28;20077;-55
2021/12/29 09:21:28;;;;;;;7.75;3.03;;;6.70;99.90;;;;;;4990726;28;20439;-55
2021/12/29 09:23:55;;;;;;;16.80;5.63;;;6.70;99.90;;;;;;4995837;28;20062;-56
2021/12/29 09:26:24;;;;;;;18.63;8.60;;;6.70;99.90;;;;;;4983770;28;20141;-56
2021/12/29 09:28:51;;;;;;;14.45;4.18;;;6.70;99.90;;;;;;4985226;28;20046;-59
2021/12/29 09:31:19;;;;;;;11.40;2.85;;;6.80;99.90;;;;;;4990326;28;20556;-59
2021/12/29 09:33:46;;;;;;;8.77;2.63;;;6.80;99.90;;;;;;4975523;28;20069;-60
2021/12/29 09:36:15;;;;;;;6.63;1.75;;;6.80;99.90;;;;;;4987849;28;20060;-59
2021/12/29 09:38:42;;;;;;;4.82;1.63;;;6.90;99.90;;;;;;4996149;28;20634;-59
2021/12/29 09:41:12;;;;;;;9.73;1.60;;;7.00;99.90;;;;;;4996149;28;20042;-56
2021/12/29 09:43:40;;;;;;;8.10;1.45;;;7.10;99.90;;;;;;4995996;28;20492;-56
2021/12/29 09:46:08;;;;;;;6.68;1.92;;;7.20;99.90;;;;;;4995421;28;20547;-59
2021/12/29 09:48:36;;;;;;;8.48;1.30;;;7.30;99.90;;;;;;4996133;28;20503;-59
2021/12/29 09:51:07;;;;;;;2.33;1.00;;;7.40;99.90;;;;;;5010732;28;20124;-60
2021/12/29 09:53:35;;;;;;;9.27;1.65;;;7.40;99.90;;;;;;4996403;28;20046;-60
2021/12/29 09:56:07;;;;;;;6.25;1.50;;;7.50;99.90;;;;;;5009855;28;20457;-58
2021/12/29 09:58:34;;;;;;;8.18;1.10;;;7.50;99.90;;;;;;4976335;28;20046;-56
2021/12/29 10:01:05;;;;;;;3.75;1.50;;;7.60;99.90;;;;;;4976187;28;20060;-56
2021/12/29 10:03:33;;;;;;;3.88;1.17;;;7.50;99.90;;;;;;4980660;28;20245;-57
2021/12/29 10:06:03;;;;;;;6.20;2.08;;;7.60;99.90;;;;;;4994865;28;20119;-57
2021/12/29 10:08:32;;;;;;;9.15;1.55;;;7.60;99.90;;;;;;4995097;28;20050;-56
2021/12/29 10:11:12;;;;;;;4.25;1.85;;;7.60;99.90;;;;;;4994549;28;20042;-58
2021/12/29 10:13:42;;;;;;;6.78;1.58;;;7.50;99.90;;;;;;4995748;28;20117;-57
2021/12/29 10:16:21;;;;;;;7.03;1.73;;;7.50;99.90;;;;;;4988079;28;20401;-58
2021/12/29 10:18:53;;;;;;;7.38;2.03;;;7.50;99.90;;;;;;4994656;28;20160;-58
2021/12/29 10:21:25;;;;;;;6.38;1.13;;;7.50;99.90;;;;;;4991961;28;20544;-57
2021/12/29 10:23:55;;;;;;;7.05;0.90;;;7.50;99.90;;;;;;4976657;28;20539;-58
2021/12/29 10:26:41;;;;;;;5.05;1.38;;;7.60;99.90;;;;;;4987074;28;20050;-57
2021/12/29 10:29:11;;;;;;;4.82;1.23;;;7.60;99.90;;;;;;4977148;28;20045;-57
2021/12/29 10:31:52;;;;;;;3.92;1.08;;;7.60;99.90;;;;;;4975662;28;20050;-57
2021/12/29 10:34:26;;;;;;;7.68;1.23;;;7.60;99.90;;;;;;4973742;28;20622;-56
2021/12/29 10:37:06;;;;;;;5.95;1.00;;;7.60;99.90;;;;;;4984540;28;20317;-57
2021/12/29 10:39:40;;;;;;;3.08;0.98;;;7.50;99.90;;;;;;4995189;28;20061;-56
2021/12/29 10:42:19;;;;;;;5.25;0.98;;;7.50;99.90;;;;;;4996088;28;20053;-57
2021/12/29 10:44:50;;;;;;;1.40;0.77;;;7.50;99.90;;;;;;4993023;28;20120;-57
2021/12/29 10:47:19;;;;;;;1.77;0.70;;;7.40;99.90;;;;;;4980121;28;20050;-56
2021/12/29 10:49:53;;;;;;;3.72;1.27;;;7.40;99.90;;;;;;4990404;28;20041;-63
2021/12/29 10:52:31;;;;;;;0.82;0.60;;;7.30;99.90;;;;;;4988629;28;20667;-56
2021/12/29 10:54:59;;;;;;;1.10;0.68;;;7.30;99.90;;;;;;4978933;28;20050;-60
2021/12/29 10:57:26;;;;;;;2.20;0.77;;;7.30;99.90;;;;;;4994090;28;20306;-60
2021/12/29 11:00:03;;;;;;;0.77;0.70;;;7.20;99.90;;;;;;4995594;28;20061;-59
2021/12/29 11:02:37;;;;;;;1.48;0.68;;;7.20;99.90;;;;;;4995812;28;20064;-59
2021/12/29 11:05:07;;;;;;;0.77;0.60;;;7.20;99.90;;;;;;4993433;28;20212;-59
2021/12/29 11:07:35;;;;;;;0.65;0.63;;;7.20;99.90;;;;;;4995293;28;20101;-59
2021/12/29 11:10:15;;;;;;;1.60;0.88;;;7.10;99.90;;;;;;5010001;28;20046;-59
2021/12/29 11:12:54;;;;;;;2.40;1.25;;;7.10;99.90;;;;;;4994419;28;20042;-59
2021/12/29 11:15:34;;;;;;;0.60;0.60;;;7.10;99.90;;;;;;4994968;28;20543;-59
2021/12/29 11:18:06;;;;;;;1.25;0.90;;;7.10;99.90;;;;;;4995081;28;20128;-59
2021/12/29 11:20:34;;;;;;;2.00;1.05;;;7.10;99.90;;;;;;4994389;28;20081;-59
2021/12/29 11:23:08;;;;;;;1.02;0.88;;;7.10;99.90;;;;;;4995636;28;20057;-60
2021/12/29 11:25:36;;;;;;;0.85;0.82;;;7.10;99.90;;;;;;4994977;28;20049;-59
2021/12/29 11:28:03;;;;;;;1.52;1.05;;;7.00;99.90;;;;;;4992836;28;20518;-60
2021/12/29 11:30:31;;;;;;;0.98;0.88;;;7.00;99.90;;;;;;4994040;28;20050;-59
2021/12/29 11:33:08;;;;;;;0.95;0.80;;;7.00;99.90;;;;;;4995108;28;20042;-60
2021/12/29 11:35:41;;;;;;;1.00;0.90;;;6.90;99.90;;;;;;4994389;28;20611;-59
2021/12/29 11:38:09;;;;;;;0.52;0.50;;;6.90;99.90;;;;;;4995857;28;20054;-59
2021/12/29 11:40:41;;;;;;;0.20;0.20;;;6.90;99.90;;;;;;4991391;28;20116;-58
2021/12/29 11:43:08;;;;;;;0.70;0.40;;;6.80;99.90;;;;;;4988811;28;20046;-56
2021/12/29 11:45:40;;;;;;;0.82;0.68;;;6.80;99.90;;;;;;4977964;28;20112;-56
2021/12/29 11:48:10;;;;;;;2.53;0.50;;;6.70;99.90;;;;;;4995994;28;20058;-57
2021/12/29 11:50:44;;;;;;;0.40;0.40;;;6.60;99.90;;;;;;4992071;28;20054;-57
2021/12/29 11:53:31;;;;;;;0.70;0.40;;;6.60;99.90;;;;;;4976434;28;20042;-58
2021/12/29 11:56:05;;;;;;;2.92;0.77;;;6.50;99.90;;;;;;4994509;28;20234;-56
2021/12/29 11:58:41;;;;;;;0.80;0.70;;;6.50;99.90;;;;;;4988145;28;20056;-57
2021/12/29 12:01:24;;;;;;;1.75;0.43;;;6.50;99.90;;;;;;4997032;28;20100;-60
2021/12/29 12:03:54;;;;;;;1.38;0.70;;;6.50;99.90;;;;;;4996877;28;20049;-59
2021/12/29 12:06:31;;;;;;;3.83;0.77;;;6.50;99.90;;;;;;4998480;28;20069;-59
2021/12/29 12:09:10;;;;;;;1.35;0.52;;;6.40;99.90;;;;;;4997657;28;20045;-59
2021/12/29 12:11:49;;;;;;;1.80;0.88;;;6.50;99.90;;;;;;4997310;28;20336;-59
2021/12/29 12:14:23;;;;;;;5.80;0.45;;;6.50;99.90;;;;;;4998317;28;20038;-59
2021/12/29 12:16:51;;;;;;;0.77;0.50;;;6.50;99.90;;;;;;4978031;28;20497;-59
2021/12/29 12:19:24;;;;;;;1.10;0.57;;;6.50;99.90;;;;;;4984838;28;20045;-59
2021/12/29 12:22:15;;;;;;;1.42;0.52;;;6.50;99.90;;;;;;4975070;28;20493;-59
2021/12/29 12:24:59;;;;;;;1.95;0.68;;;6.40;99.90;;;;;;4985822;28;20270;-59
2021/12/29 12:27:40;;;;;;;3.35;0.68;;;6.40;99.90;;;;;;4992978;28;20073;-59
2021/12/29 12:30:13;;;;;;;1.98;0.50;;;6.40;99.90;;;;;;4987593;28;20113;-59
2021/12/29 12:33:07;;;;;;;1.67;0.95;;;6.40;99.90;;;;;;4976982;28;20050;-60
2021/12/29 12:36:07;;;;;;;0.80;0.60;;;6.40;99.90;;;;;;4974490;28;20133;-59
2021/12/29 12:38:36;;;;;;;0.30;0.30;;;6.30;99.90;;;;;;4976928;28;20421;-59
2021/12/29 12:41:11;;;;;;;3.05;0.32;;;6.40;99.90;;;;;;4977149;28;20050;-59
2021/12/29 12:44:00;;;;;;;0.85;0.50;;;6.40;99.90;;;;;;4978272;28;20287;-59
2021/12/29 12:46:37;;;;;;;2.05;0.50;;;6.40;99.90;;;;;;4981728;28;20042;-59
2021/12/29 12:49:28;;;;;;;0.32;0.32;;;6.40;99.90;;;;;;4975271;28;20053;-59
2021/12/29 12:52:00;;;;;;;1.15;0.40;;;6.40;99.90;;;;;;4987286;28;20093;-57
2021/12/29 12:54:30;;;;;;;0.40;0.40;;;6.40;99.90;;;;;;4977502;28;20509;-57
2021/12/29 12:56:58;;;;;;;5.43;0.45;;;6.40;99.90;;;;;;4974264;28;20093;-57
2021/12/29 12:59:36;;;;;;;0.63;0.47;;;6.40;99.90;;;;;;4975774;28;20050;-59
2021/12/29 13:02:16;;;;;;;0.80;0.50;;;6.30;99.90;;;;;;4978174;28;20054;-56
2021/12/29 13:05:05;;;;;;;0.43;0.43;;;6.30;99.90;;;;;;4976134;28;20054;-56
2021/12/29 13:07:33;;;;;;;0.40;0.32;;;6.40;99.90;;;;;;4976784;28;20093;-56
2021/12/29 13:10:01;;;;;;;1.02;0.30;;;6.30;99.90;;;;;;4976446;28;20089;-56
2021/12/29 13:12:37;;;;;;;0.40;0.40;;;6.30;99.90;;;;;;4975676;28;20378;-57
2021/12/29 13:15:15;;;;;;;1.35;0.30;;;6.30;99.90;;;;;;4976259;28;20072;-58
2021/12/29 13:17:45;;;;;;;0.45;0.45;;;6.30;99.90;;;;;;4977820;28;20091;-56
2021/12/29 13:20:14;;;;;;;0.50;0.45;;;6.30;99.90;;;;;;4987473;28;20726;-56
2021/12/29 13:22:42;;;;;;;0.82;0.50;;;6.30;99.90;;;;;;4991589;28;20575;-57
2021/12/29 13:25:29;;;;;;;0.50;0.50;;;6.30;99.90;;;;;;4992349;28;20085;-57